Millville, Delaware
Current Conditions -  °F | °C
As of 7:35 AM on Monday 24 Nov 2014 (Local Time) from KOXB Reporting Station
Light Rain Light Rain  
Wind Chill: 60°   Ceiling: 300
Heat Index: 60°   Visibility: 0.75mi
Dew Point: 60°   Wind: 15mph
Humidity: 100%   Direction: 220°SW
Pressure: 29.76"   Gusts: 23mph
Location:  38.55°N, 75.12°W
Report Text: KOXB 241235Z AUTO 22013G20KT 3/4SM -RA BR OVC003 16/16 A2976 RMK AO2 P0000 T01560156 TSNO $
Loading
Personal Weather Stations






























Interactive Weather Map New forecast layout! Learn more

10-Day Weather Forecast

Advertisements
Track Severe Weather on mobile